sensor_id;sensor_type;location;lat;lon;timestamp;P1;durP1;ratioP1;P2;durP2;ratioP2
54935;SDS011;40838;50.676;7.838;2022-09-16T00:01:11;3.05;;;1.15;;
54935;SDS011;40838;50.676;7.838;2022-09-16T00:03:43;7.03;;;1.50;;
54935;SDS011;40838;50.676;7.838;2022-09-16T00:06:28;5.97;;;1.92;;
54935;SDS011;40838;50.676;7.838;2022-09-16T00:09:10;7.57;;;1.27;;
54935;SDS011;40838;50.676;7.838;2022-09-16T00:12:07;3.33;;;1.30;;
54935;SDS011;40838;50.676;7.838;2022-09-16T00:14:55;3.25;;;1.55;;
54935;SDS011;40838;50.676;7.838;2022-09-16T00:17:39;6.45;;;1.60;;
54935;SDS011;40838;50.676;7.838;2022-09-16T00:23:41;4.35;;;1.25;;
54935;SDS011;40838;50.676;7.838;2022-09-16T00:26:26;7.47;;;1.65;;
54935;SDS011;40838;50.676;7.838;2022-09-16T00:29:22;3.58;;;1.17;;
54935;SDS011;40838;50.676;7.838;2022-09-16T00:31:55;5.90;;;1.30;;
54935;SDS011;40838;50.676;7.838;2022-09-16T00:34:24;2.75;;;0.90;;
54935;SDS011;40838;50.676;7.838;2022-09-16T00:36:53;8.57;;;1.75;;
54935;SDS011;40838;50.676;7.838;2022-09-16T00:39:45;7.78;;;1.65;;
54935;SDS011;40838;50.676;7.838;2022-09-16T00:42:23;4.38;;;1.40;;
54935;SDS011;40838;50.676;7.838;2022-09-16T00:44:51;4.18;;;1.23;;
54935;SDS011;40838;50.676;7.838;2022-09-16T00:47:19;10.45;;;1.75;;
54935;SDS011;40838;50.676;7.838;2022-09-16T00:49:46;8.15;;;1.42;;
54935;SDS011;40838;50.676;7.838;2022-09-16T00:52:14;3.60;;;1.15;;
54935;SDS011;40838;50.676;7.838;2022-09-16T00:54:42;8.45;;;1.48;;
54935;SDS011;40838;50.676;7.838;2022-09-16T00:57:09;7.00;;;1.48;;
54935;SDS011;40838;50.676;7.838;2022-09-16T00:59:38;6.10;;;1.25;;
54935;SDS011;40838;50.676;7.838;2022-09-16T01:02:08;7.85;;;1.55;;
54935;SDS011;40838;50.676;7.838;2022-09-16T01:04:37;3.78;;;1.13;;
54935;SDS011;40838;50.676;7.838;2022-09-16T01:07:06;11.38;;;2.13;;
54935;SDS011;40838;50.676;7.838;2022-09-16T01:09:33;5.15;;;1.67;;
54935;SDS011;40838;50.676;7.838;2022-09-16T01:12:00;4.57;;;1.45;;
54935;SDS011;40838;50.676;7.838;2022-09-16T01:14:26;8.20;;;1.70;;
54935;SDS011;40838;50.676;7.838;2022-09-16T01:17:14;16.53;;;2.23;;
54935;SDS011;40838;50.676;7.838;2022-09-16T01:19:49;10.17;;;2.17;;
54935;SDS011;40838;50.676;7.838;2022-09-16T01:22:26;6.90;;;1.70;;
54935;SDS011;40838;50.676;7.838;2022-09-16T01:24:58;16.35;;;2.30;;
54935;SDS011;40838;50.676;7.838;2022-09-16T01:27:32;8.75;;;2.00;;
54935;SDS011;40838;50.676;7.838;2022-09-16T01:33:00;10.48;;;2.05;;
54935;SDS011;40838;50.676;7.838;2022-09-16T01:35:35;8.65;;;1.80;;
54935;SDS011;40838;50.676;7.838;2022-09-16T01:38:05;10.68;;;2.05;;
54935;SDS011;40838;50.676;7.838;2022-09-16T01:40:38;8.68;;;1.85;;
54935;SDS011;40838;50.676;7.838;2022-09-16T01:43:10;5.57;;;2.00;;
54935;SDS011;40838;50.676;7.838;2022-09-16T01:45:40;6.13;;;1.58;;
54935;SDS011;40838;50.676;7.838;2022-09-16T01:48:09;6.25;;;1.65;;
54935;SDS011;40838;50.676;7.838;2022-09-16T01:50:39;10.55;;;2.03;;
54935;SDS011;40838;50.676;7.838;2022-09-16T01:53:08;6.97;;;1.88;;
54935;SDS011;40838;50.676;7.838;2022-09-16T01:55:38;6.10;;;2.17;;
54935;SDS011;40838;50.676;7.838;2022-09-16T01:58:08;11.07;;;1.90;;
54935;SDS011;40838;50.676;7.838;2022-09-16T02:00:36;13.13;;;3.70;;
54935;SDS011;40838;50.676;7.838;2022-09-16T02:03:05;9.95;;;1.70;;
54935;SDS011;40838;50.676;7.838;2022-09-16T02:05:35;15.75;;;2.53;;
54935;SDS011;40838;50.676;7.838;2022-09-16T02:08:04;9.98;;;2.45;;
54935;SDS011;40838;50.676;7.838;2022-09-16T02:10:32;8.23;;;2.30;;
54935;SDS011;40838;50.676;7.838;2022-09-16T02:13:01;6.32;;;2.38;;
54935;SDS011;40838;50.676;7.838;2022-09-16T02:15:29;6.13;;;2.00;;
54935;SDS011;40838;50.676;7.838;2022-09-16T02:17:59;14.38;;;2.30;;
54935;SDS011;40838;50.676;7.838;2022-09-16T02:20:27;12.45;;;2.80;;
54935;SDS011;40838;50.676;7.838;2022-09-16T02:22:57;8.05;;;2.38;;
54935;SDS011;40838;50.676;7.838;2022-09-16T02:25:25;5.90;;;2.22;;
54935;SDS011;40838;50.676;7.838;2022-09-16T02:27:53;6.75;;;2.10;;
54935;SDS011;40838;50.676;7.838;2022-09-16T02:30:20;10.40;;;2.55;;
54935;SDS011;40838;50.676;7.838;2022-09-16T02:32:47;10.25;;;2.72;;
54935;SDS011;40838;50.676;7.838;2022-09-16T02:35:16;6.65;;;2.70;;
54935;SDS011;40838;50.676;7.838;2022-09-16T02:37:44;7.15;;;2.83;;
54935;SDS011;40838;50.676;7.838;2022-09-16T02:40:13;11.30;;;2.60;;
54935;SDS011;40838;50.676;7.838;2022-09-16T02:42:41;7.50;;;3.03;;
54935;SDS011;40838;50.676;7.838;2022-09-16T02:45:08;6.57;;;2.55;;
54935;SDS011;40838;50.676;7.838;2022-09-16T02:47:36;6.25;;;2.47;;
54935;SDS011;40838;50.676;7.838;2022-09-16T02:50:08;9.23;;;3.05;;
54935;SDS011;40838;50.676;7.838;2022-09-16T02:52:37;5.10;;;2.50;;
54935;SDS011;40838;50.676;7.838;2022-09-16T02:55:06;8.93;;;2.53;;
54935;SDS011;40838;50.676;7.838;2022-09-16T02:57:37;7.28;;;2.22;;
54935;SDS011;40838;50.676;7.838;2022-09-16T03:00:04;21.33;;;2.88;;
54935;SDS011;40838;50.676;7.838;2022-09-16T03:02:31;7.57;;;2.35;;
54935;SDS011;40838;50.676;7.838;2022-09-16T03:04:58;10.73;;;2.55;;
54935;SDS011;40838;50.676;7.838;2022-09-16T03:07:25;8.27;;;2.90;;
54935;SDS011;40838;50.676;7.838;2022-09-16T03:09:54;8.27;;;2.42;;
54935;SDS011;40838;50.676;7.838;2022-09-16T03:12:27;9.50;;;2.20;;
54935;SDS011;40838;50.676;7.838;2022-09-16T03:17:44;7.10;;;2.85;;
54935;SDS011;40838;50.676;7.838;2022-09-16T03:20:14;13.70;;;2.42;;
54935;SDS011;40838;50.676;7.838;2022-09-16T03:22:46;10.80;;;2.58;;
54935;SDS011;40838;50.676;7.838;2022-09-16T03:25:17;7.38;;;2.80;;
54935;SDS011;40838;50.676;7.838;2022-09-16T03:27:49;7.88;;;2.42;;
54935;SDS011;40838;50.676;7.838;2022-09-16T03:30:16;13.57;;;2.45;;
54935;SDS011;40838;50.676;7.838;2022-09-16T03:32:46;9.27;;;2.38;;
54935;SDS011;40838;50.676;7.838;2022-09-16T03:35:15;8.50;;;2.28;;
54935;SDS011;40838;50.676;7.838;2022-09-16T03:37:44;11.77;;;2.80;;
54935;SDS011;40838;50.676;7.838;2022-09-16T03:40:12;11.30;;;2.85;;
54935;SDS011;40838;50.676;7.838;2022-09-16T03:42:40;15.77;;;3.33;;
54935;SDS011;40838;50.676;7.838;2022-09-16T03:45:09;9.00;;;2.40;;
54935;SDS011;40838;50.676;7.838;2022-09-16T03:47:38;6.20;;;2.53;;
54935;SDS011;40838;50.676;7.838;2022-09-16T03:50:07;6.95;;;3.00;;
54935;SDS011;40838;50.676;7.838;2022-09-16T03:52:33;6.13;;;2.40;;
54935;SDS011;40838;50.676;7.838;2022-09-16T03:55:00;9.23;;;2.53;;
54935;SDS011;40838;50.676;7.838;2022-09-16T03:57:27;7.78;;;2.30;;
54935;SDS011;40838;50.676;7.838;2022-09-16T03:59:54;4.95;;;1.98;;
54935;SDS011;40838;50.676;7.838;2022-09-16T04:02:21;6.28;;;2.40;;
54935;SDS011;40838;50.676;7.838;2022-09-16T04:04:48;9.52;;;2.75;;
54935;SDS011;40838;50.676;7.838;2022-09-16T04:10:22;7.85;;;2.30;;
54935;SDS011;40838;50.676;7.838;2022-09-16T04:12:49;8.65;;;2.47;;
54935;SDS011;40838;50.676;7.838;2022-09-16T04:15:21;10.88;;;2.65;;
54935;SDS011;40838;50.676;7.838;2022-09-16T04:17:58;8.20;;;2.20;;
54935;SDS011;40838;50.676;7.838;2022-09-16T04:20:35;7.55;;;2.42;;
54935;SDS011;40838;50.676;7.838;2022-09-16T04:23:11;10.48;;;2.33;;
54935;SDS011;40838;50.676;7.838;2022-09-16T04:25:54;6.47;;;2.17;;
54935;SDS011;40838;50.676;7.838;2022-09-16T04:28:24;5.50;;;2.05;;
54935;SDS011;40838;50.676;7.838;2022-09-16T04:31:00;6.75;;;2.47;;
54935;SDS011;40838;50.676;7.838;2022-09-16T04:33:59;12.15;;;2.65;;
54935;SDS011;40838;50.676;7.838;2022-09-16T04:36:45;9.13;;;2.17;;
54935;SDS011;40838;50.676;7.838;2022-09-16T04:39:13;9.20;;;2.53;;
54935;SDS011;40838;50.676;7.838;2022-09-16T04:41:45;8.40;;;3.10;;
54935;SDS011;40838;50.676;7.838;2022-09-16T04:44:13;8.40;;;2.30;;
54935;SDS011;40838;50.676;7.838;2022-09-16T04:46:50;11.32;;;2.42;;
54935;SDS011;40838;50.676;7.838;2022-09-16T04:49:30;7.45;;;2.08;;
54935;SDS011;40838;50.676;7.838;2022-09-16T04:52:03;7.40;;;2.33;;
54935;SDS011;40838;50.676;7.838;2022-09-16T04:54:32;7.47;;;2.45;;
54935;SDS011;40838;50.676;7.838;2022-09-16T04:57:08;8.90;;;2.88;;
54935;SDS011;40838;50.676;7.838;2022-09-16T04:59:40;7.50;;;2.70;;
54935;SDS011;40838;50.676;7.838;2022-09-16T05:02:11;6.53;;;2.60;;
54935;SDS011;40838;50.676;7.838;2022-09-16T05:04:44;6.65;;;2.20;;
54935;SDS011;40838;50.676;7.838;2022-09-16T05:07:12;8.40;;;2.38;;
54935;SDS011;40838;50.676;7.838;2022-09-16T05:09:47;9.93;;;2.67;;
54935;SDS011;40838;50.676;7.838;2022-09-16T05:12:18;8.13;;;2.75;;
54935;SDS011;40838;50.676;7.838;2022-09-16T05:14:45;10.30;;;2.80;;
54935;SDS011;40838;50.676;7.838;2022-09-16T05:17:14;13.77;;;2.85;;
54935;SDS011;40838;50.676;7.838;2022-09-16T05:19:42;10.10;;;3.17;;
54935;SDS011;40838;50.676;7.838;2022-09-16T05:22:15;6.80;;;2.65;;
54935;SDS011;40838;50.676;7.838;2022-09-16T05:24:47;12.63;;;3.50;;
54935;SDS011;40838;50.676;7.838;2022-09-16T05:27:20;12.43;;;2.97;;
54935;SDS011;40838;50.676;7.838;2022-09-16T05:29:54;13.65;;;3.10;;
54935;SDS011;40838;50.676;7.838;2022-09-16T05:32:29;11.10;;;3.33;;
54935;SDS011;40838;50.676;7.838;2022-09-16T05:35:04;14.40;;;3.47;;
54935;SDS011;40838;50.676;7.838;2022-09-16T05:37:40;9.25;;;3.35;;
54935;SDS011;40838;50.676;7.838;2022-09-16T05:40:08;6.00;;;3.03;;
54935;SDS011;40838;50.676;7.838;2022-09-16T05:42:39;11.85;;;3.40;;
54935;SDS011;40838;50.676;7.838;2022-09-16T05:45:12;7.68;;;3.65;;
54935;SDS011;40838;50.676;7.838;2022-09-16T05:47:48;8.48;;;3.00;;
54935;SDS011;40838;50.676;7.838;2022-09-16T05:50:15;13.07;;;3.78;;
54935;SDS011;40838;50.676;7.838;2022-09-16T05:52:42;10.57;;;3.60;;
54935;SDS011;40838;50.676;7.838;2022-09-16T05:55:09;11.48;;;3.42;;
54935;SDS011;40838;50.676;7.838;2022-09-16T05:57:35;8.30;;;3.53;;
54935;SDS011;40838;50.676;7.838;2022-09-16T06:00:04;11.50;;;4.35;;
54935;SDS011;40838;50.676;7.838;2022-09-16T06:02:35;10.60;;;4.30;;
54935;SDS011;40838;50.676;7.838;2022-09-16T06:05:02;12.43;;;3.80;;
54935;SDS011;40838;50.676;7.838;2022-09-16T06:07:29;12.70;;;4.95;;
54935;SDS011;40838;50.676;7.838;2022-09-16T06:09:55;13.13;;;4.93;;
54935;SDS011;40838;50.676;7.838;2022-09-16T06:12:22;14.18;;;4.78;;
54935;SDS011;40838;50.676;7.838;2022-09-16T06:14:48;9.88;;;4.82;;
54935;SDS011;40838;50.676;7.838;2022-09-16T06:17:16;9.05;;;4.22;;
54935;SDS011;40838;50.676;7.838;2022-09-16T06:19:43;12.35;;;4.30;;
54935;SDS011;40838;50.676;7.838;2022-09-16T06:22:10;10.77;;;3.92;;
54935;SDS011;40838;50.676;7.838;2022-09-16T06:24:39;11.35;;;4.63;;
54935;SDS011;40838;50.676;7.838;2022-09-16T06:27:05;7.75;;;4.13;;
54935;SDS011;40838;50.676;7.838;2022-09-16T06:29:33;13.18;;;3.53;;
54935;SDS011;40838;50.676;7.838;2022-09-16T06:31:59;10.65;;;3.45;;
54935;SDS011;40838;50.676;7.838;2022-09-16T06:34:27;10.60;;;3.65;;
54935;SDS011;40838;50.676;7.838;2022-09-16T06:36:56;10.35;;;3.33;;
54935;SDS011;40838;50.676;7.838;2022-09-16T06:39:23;12.07;;;3.88;;
54935;SDS011;40838;50.676;7.838;2022-09-16T06:41:49;7.38;;;3.42;;
54935;SDS011;40838;50.676;7.838;2022-09-16T06:44:16;16.35;;;4.03;;
54935;SDS011;40838;50.676;7.838;2022-09-16T06:46:42;11.82;;;3.40;;
54935;SDS011;40838;50.676;7.838;2022-09-16T06:49:09;10.13;;;3.10;;
54935;SDS011;40838;50.676;7.838;2022-09-16T06:51:38;7.63;;;2.58;;
54935;SDS011;40838;50.676;7.838;2022-09-16T06:54:06;7.57;;;2.80;;
54935;SDS011;40838;50.676;7.838;2022-09-16T06:56:33;8.45;;;2.72;;
54935;SDS011;40838;50.676;7.838;2022-09-16T06:59:02;8.63;;;2.90;;
54935;SDS011;40838;50.676;7.838;2022-09-16T07:01:29;8.45;;;2.20;;
54935;SDS011;40838;50.676;7.838;2022-09-16T07:03:56;10.85;;;2.22;;
54935;SDS011;40838;50.676;7.838;2022-09-16T07:06:25;8.30;;;2.33;;
54935;SDS011;40838;50.676;7.838;2022-09-16T07:08:55;8.07;;;2.25;;
54935;SDS011;40838;50.676;7.838;2022-09-16T07:11:21;14.95;;;2.53;;
54935;SDS011;40838;50.676;7.838;2022-09-16T07:13:48;6.68;;;2.20;;
54935;SDS011;40838;50.676;7.838;2022-09-16T07:16:16;8.30;;;2.65;;
54935;SDS011;40838;50.676;7.838;2022-09-16T07:18:43;11.60;;;2.50;;
54935;SDS011;40838;50.676;7.838;2022-09-16T07:21:11;4.07;;;1.85;;
54935;SDS011;40838;50.676;7.838;2022-09-16T07:23:39;7.25;;;1.85;;
54935;SDS011;40838;50.676;7.838;2022-09-16T07:26:08;10.23;;;2.22;;
54935;SDS011;40838;50.676;7.838;2022-09-16T07:28:35;6.15;;;1.95;;
54935;SDS011;40838;50.676;7.838;2022-09-16T07:31:03;9.45;;;1.92;;
54935;SDS011;40838;50.676;7.838;2022-09-16T07:33:30;6.20;;;2.35;;
54935;SDS011;40838;50.676;7.838;2022-09-16T07:35:58;6.45;;;1.83;;
54935;SDS011;40838;50.676;7.838;2022-09-16T07:38:24;8.20;;;1.83;;
54935;SDS011;40838;50.676;7.838;2022-09-16T07:40:51;4.95;;;1.80;;
54935;SDS011;40838;50.676;7.838;2022-09-16T07:43:19;8.00;;;1.70;;
54935;SDS011;40838;50.676;7.838;2022-09-16T07:45:53;9.20;;;1.75;;
54935;SDS011;40838;50.676;7.838;2022-09-16T07:48:20;10.32;;;1.80;;
54935;SDS011;40838;50.676;7.838;2022-09-16T07:50:52;7.55;;;1.77;;
54935;SDS011;40838;50.676;7.838;2022-09-16T07:53:19;7.75;;;1.42;;
54935;SDS011;40838;50.676;7.838;2022-09-16T07:55:45;10.05;;;2.03;;
54935;SDS011;40838;50.676;7.838;2022-09-16T07:58:12;11.65;;;1.90;;
54935;SDS011;40838;50.676;7.838;2022-09-16T08:00:41;5.60;;;1.73;;
54935;SDS011;40838;50.676;7.838;2022-09-16T08:03:08;8.32;;;2.25;;
54935;SDS011;40838;50.676;7.838;2022-09-16T08:05:34;6.85;;;1.70;;
54935;SDS011;40838;50.676;7.838;2022-09-16T08:08:01;10.77;;;1.98;;
54935;SDS011;40838;50.676;7.838;2022-09-16T08:10:28;3.67;;;1.80;;
54935;SDS011;40838;50.676;7.838;2022-09-16T08:12:54;4.00;;;1.90;;
54935;SDS011;40838;50.676;7.838;2022-09-16T08:15:21;6.68;;;3.08;;
54935;SDS011;40838;50.676;7.838;2022-09-16T08:17:50;7.35;;;3.47;;
54935;SDS011;40838;50.676;7.838;2022-09-16T08:20:17;12.55;;;6.03;;
54935;SDS011;40838;50.676;7.838;2022-09-16T08:22:43;9.68;;;3.35;;
54935;SDS011;40838;50.676;7.838;2022-09-16T08:25:10;10.88;;;4.05;;
54935;SDS011;40838;50.676;7.838;2022-09-16T08:27:37;10.00;;;3.88;;
54935;SDS011;40838;50.676;7.838;2022-09-16T08:30:04;7.45;;;3.90;;
54935;SDS011;40838;50.676;7.838;2022-09-16T08:32:30;7.22;;;3.70;;
54935;SDS011;40838;50.676;7.838;2022-09-16T08:34:59;8.70;;;3.95;;
54935;SDS011;40838;50.676;7.838;2022-09-16T08:37:25;8.50;;;3.65;;
54935;SDS011;40838;50.676;7.838;2022-09-16T08:39:52;8.48;;;4.45;;
54935;SDS011;40838;50.676;7.838;2022-09-16T08:42:27;5.45;;;3.50;;
54935;SDS011;40838;50.676;7.838;2022-09-16T08:44:59;7.38;;;4.00;;
54935;SDS011;40838;50.676;7.838;2022-09-16T08:47:32;11.65;;;3.72;;
54935;SDS011;40838;50.676;7.838;2022-09-16T08:50:03;4.22;;;2.92;;
54935;SDS011;40838;50.676;7.838;2022-09-16T08:52:32;8.10;;;3.28;;
54935;SDS011;40838;50.676;7.838;2022-09-16T08:54:59;9.45;;;4.07;;
54935;SDS011;40838;50.676;7.838;2022-09-16T08:57:28;8.85;;;3.08;;
54935;SDS011;40838;50.676;7.838;2022-09-16T08:59:56;9.10;;;2.80;;
54935;SDS011;40838;50.676;7.838;2022-09-16T09:02:27;12.45;;;3.95;;
54935;SDS011;40838;50.676;7.838;2022-09-16T09:04:56;12.60;;;3.58;;
54935;SDS011;40838;50.676;7.838;2022-09-16T09:07:27;4.47;;;2.58;;
54935;SDS011;40838;50.676;7.838;2022-09-16T09:10:00;5.38;;;2.40;;
54935;SDS011;40838;50.676;7.838;2022-09-16T09:12:31;5.60;;;2.97;;
54935;SDS011;40838;50.676;7.838;2022-09-16T09:15:00;6.80;;;2.85;;
54935;SDS011;40838;50.676;7.838;2022-09-16T09:17:32;9.15;;;3.63;;
54935;SDS011;40838;50.676;7.838;2022-09-16T09:20:04;7.50;;;2.80;;
54935;SDS011;40838;50.676;7.838;2022-09-16T09:22:37;18.02;;;2.95;;
54935;SDS011;40838;50.676;7.838;2022-09-16T09:25:17;7.40;;;2.50;;
54935;SDS011;40838;50.676;7.838;2022-09-16T09:27:47;5.80;;;2.88;;
54935;SDS011;40838;50.676;7.838;2022-09-16T09:30:18;8.45;;;3.10;;
54935;SDS011;40838;50.676;7.838;2022-09-16T09:33:04;5.88;;;3.17;;
54935;SDS011;40838;50.676;7.838;2022-09-16T09:35:46;8.27;;;2.88;;
54935;SDS011;40838;50.676;7.838;2022-09-16T09:38:32;3.60;;;1.80;;
54935;SDS011;40838;50.676;7.838;2022-09-16T09:41:05;4.07;;;1.92;;
54935;SDS011;40838;50.676;7.838;2022-09-16T09:43:33;8.23;;;2.28;;
54935;SDS011;40838;50.676;7.838;2022-09-16T09:46:02;8.63;;;2.10;;
54935;SDS011;40838;50.676;7.838;2022-09-16T09:48:31;5.07;;;2.22;;
54935;SDS011;40838;50.676;7.838;2022-09-16T09:50:59;4.78;;;2.75;;
54935;SDS011;40838;50.676;7.838;2022-09-16T09:53:32;6.40;;;2.55;;
54935;SDS011;40838;50.676;7.838;2022-09-16T09:56:03;9.05;;;2.50;;
54935;SDS011;40838;50.676;7.838;2022-09-16T09:58:36;8.00;;;3.15;;
54935;SDS011;40838;50.676;7.838;2022-09-16T10:01:05;5.22;;;2.03;;
54935;SDS011;40838;50.676;7.838;2022-09-16T10:03:32;6.05;;;2.58;;
54935;SDS011;40838;50.676;7.838;2022-09-16T10:05:58;5.85;;;1.60;;
54935;SDS011;40838;50.676;7.838;2022-09-16T10:08:26;1.80;;;1.15;;
54935;SDS011;40838;50.676;7.838;2022-09-16T10:10:56;4.20;;;1.33;;
54935;SDS011;40838;50.676;7.838;2022-09-16T10:13:24;3.88;;;1.55;;
54935;SDS011;40838;50.676;7.838;2022-09-16T10:15:52;3.63;;;0.80;;
54935;SDS011;40838;50.676;7.838;2022-09-16T10:18:21;4.40;;;0.95;;
54935;SDS011;40838;50.676;7.838;2022-09-16T10:20:54;4.53;;;1.15;;
54935;SDS011;40838;50.676;7.838;2022-09-16T10:23:22;2.15;;;0.73;;
54935;SDS011;40838;50.676;7.838;2022-09-16T10:26:01;3.45;;;0.75;;
54935;SDS011;40838;50.676;7.838;2022-09-16T10:28:29;3.28;;;0.80;;
54935;SDS011;40838;50.676;7.838;2022-09-16T10:30:57;4.32;;;1.20;;
54935;SDS011;40838;50.676;7.838;2022-09-16T10:33:26;1.65;;;1.00;;
54935;SDS011;40838;50.676;7.838;2022-09-16T10:35:54;2.50;;;0.50;;
54935;SDS011;40838;50.676;7.838;2022-09-16T10:38:23;3.47;;;0.57;;
54935;SDS011;40838;50.676;7.838;2022-09-16T10:40:51;4.25;;;0.73;;
54935;SDS011;40838;50.676;7.838;2022-09-16T10:43:17;2.65;;;0.77;;
54935;SDS011;40838;50.676;7.838;2022-09-16T10:45:46;4.00;;;0.80;;
54935;SDS011;40838;50.676;7.838;2022-09-16T10:48:14;4.18;;;1.23;;
54935;SDS011;40838;50.676;7.838;2022-09-16T10:50:50;7.00;;;1.20;;
54935;SDS011;40838;50.676;7.838;2022-09-16T10:53:21;4.10;;;1.40;;
54935;SDS011;40838;50.676;7.838;2022-09-16T10:55:55;4.10;;;1.90;;
54935;SDS011;40838;50.676;7.838;2022-09-16T10:58:22;5.63;;;1.80;;
54935;SDS011;40838;50.676;7.838;2022-09-16T11:00:52;3.97;;;1.55;;
54935;SDS011;40838;50.676;7.838;2022-09-16T11:03:29;4.97;;;1.45;;
54935;SDS011;40838;50.676;7.838;2022-09-16T11:06:02;5.97;;;1.58;;
54935;SDS011;40838;50.676;7.838;2022-09-16T11:08:35;4.15;;;1.25;;
54935;SDS011;40838;50.676;7.838;2022-09-16T11:11:04;3.28;;;1.10;;
54935;SDS011;40838;50.676;7.838;2022-09-16T11:13:36;6.13;;;1.20;;
54935;SDS011;40838;50.676;7.838;2022-09-16T11:16:12;3.50;;;1.30;;
54935;SDS011;40838;50.676;7.838;2022-09-16T11:18:44;5.28;;;1.30;;
54935;SDS011;40838;50.676;7.838;2022-09-16T11:21:19;1.55;;;1.15;;
54935;SDS011;40838;50.676;7.838;2022-09-16T11:24:02;2.72;;;1.20;;
54935;SDS011;40838;50.676;7.838;2022-09-16T11:26:33;5.07;;;1.40;;
54935;SDS011;40838;50.676;7.838;2022-09-16T11:29:11;6.75;;;1.63;;
54935;SDS011;40838;50.676;7.838;2022-09-16T11:31:45;2.25;;;1.00;;
54935;SDS011;40838;50.676;7.838;2022-09-16T11:34:19;2.17;;;0.88;;
54935;SDS011;40838;50.676;7.838;2022-09-16T11:36:53;2.20;;;0.90;;
54935;SDS011;40838;50.676;7.838;2022-09-16T11:42:07;2.25;;;0.82;;
54935;SDS011;40838;50.676;7.838;2022-09-16T11:44:38;1.75;;;0.52;;
54935;SDS011;40838;50.676;7.838;2022-09-16T11:47:11;2.85;;;0.85;;
54935;SDS011;40838;50.676;7.838;2022-09-16T11:49:47;2.72;;;1.08;;
54935;SDS011;40838;50.676;7.838;2022-09-16T11:52:21;4.97;;;0.90;;
54935;SDS011;40838;50.676;7.838;2022-09-16T11:54:56;8.00;;;1.10;;
54935;SDS011;40838;50.676;7.838;2022-09-16T11:57:25;6.63;;;1.10;;
54935;SDS011;40838;50.676;7.838;2022-09-16T11:59:55;3.17;;;0.60;;
54935;SDS011;40838;50.676;7.838;2022-09-16T12:02:26;2.40;;;0.82;;
54935;SDS011;40838;50.676;7.838;2022-09-16T12:04:55;2.75;;;0.90;;
54935;SDS011;40838;50.676;7.838;2022-09-16T12:07:25;1.85;;;0.65;;
54935;SDS011;40838;50.676;7.838;2022-09-16T12:09:57;3.13;;;0.90;;
54935;SDS011;40838;50.676;7.838;2022-09-16T12:12:27;1.90;;;0.70;;
54935;SDS011;40838;50.676;7.838;2022-09-16T12:14:56;5.43;;;1.00;;
54935;SDS011;40838;50.676;7.838;2022-09-16T12:17:25;3.28;;;0.93;;
54935;SDS011;40838;50.676;7.838;2022-09-16T12:19:55;2.50;;;0.88;;
54935;SDS011;40838;50.676;7.838;2022-09-16T12:22:24;3.67;;;0.98;;
54935;SDS011;40838;50.676;7.838;2022-09-16T12:24:54;2.08;;;1.05;;
54935;SDS011;40838;50.676;7.838;2022-09-16T12:27:30;3.78;;;1.02;;
54935;SDS011;40838;50.676;7.838;2022-09-16T12:30:00;1.80;;;0.65;;
54935;SDS011;40838;50.676;7.838;2022-09-16T12:32:31;3.30;;;0.75;;
54935;SDS011;40838;50.676;7.838;2022-09-16T12:35:00;6.15;;;0.77;;
54935;SDS011;40838;50.676;7.838;2022-09-16T12:37:30;1.52;;;0.52;;
54935;SDS011;40838;50.676;7.838;2022-09-16T12:39:59;3.50;;;1.10;;
54935;SDS011;40838;50.676;7.838;2022-09-16T12:42:40;1.10;;;0.57;;
54935;SDS011;40838;50.676;7.838;2022-09-16T12:45:20;5.18;;;1.10;;
54935;SDS011;40838;50.676;7.838;2022-09-16T12:47:56;3.10;;;0.88;;
54935;SDS011;40838;50.676;7.838;2022-09-16T12:53:33;2.72;;;0.80;;
54935;SDS011;40838;50.676;7.838;2022-09-16T12:56:05;3.03;;;0.90;;
54935;SDS011;40838;50.676;7.838;2022-09-16T12:58:39;4.97;;;0.98;;
54935;SDS011;40838;50.676;7.838;2022-09-16T13:01:12;2.45;;;0.80;;
54935;SDS011;40838;50.676;7.838;2022-09-16T13:03:43;7.00;;;1.30;;
54935;SDS011;40838;50.676;7.838;2022-09-16T13:06:20;8.87;;;1.17;;
54935;SDS011;40838;50.676;7.838;2022-09-16T13:08:48;3.80;;;1.05;;
54935;SDS011;40838;50.676;7.838;2022-09-16T13:11:17;4.60;;;1.00;;
54935;SDS011;40838;50.676;7.838;2022-09-16T13:13:50;4.25;;;0.80;;
54935;SDS011;40838;50.676;7.838;2022-09-16T13:16:29;2.85;;;0.85;;
54935;SDS011;40838;50.676;7.838;2022-09-16T13:19:12;4.43;;;0.63;;
54935;SDS011;40838;50.676;7.838;2022-09-16T13:21:43;1.27;;;0.60;;
54935;SDS011;40838;50.676;7.838;2022-09-16T13:24:12;1.02;;;0.45;;
54935;SDS011;40838;50.676;7.838;2022-09-16T13:26:41;0.77;;;0.43;;
54935;SDS011;40838;50.676;7.838;2022-09-16T13:31:54;1.90;;;0.30;;
54935;SDS011;40838;50.676;7.838;2022-09-16T13:34:24;0.30;;;0.30;;
54935;SDS011;40838;50.676;7.838;2022-09-16T13:36:51;0.63;;;0.40;;
54935;SDS011;40838;50.676;7.838;2022-09-16T13:39:27;4.07;;;1.27;;
54935;SDS011;40838;50.676;7.838;2022-09-16T13:41:54;5.28;;;0.98;;
54935;SDS011;40838;50.676;7.838;2022-09-16T13:44:25;2.83;;;0.90;;
54935;SDS011;40838;50.676;7.838;2022-09-16T13:47:11;4.20;;;0.93;;
54935;SDS011;40838;50.676;7.838;2022-09-16T13:49:42;13.55;;;1.00;;
54935;SDS011;40838;50.676;7.838;2022-09-16T13:52:18;3.50;;;1.13;;
54935;SDS011;40838;50.676;7.838;2022-09-16T13:54:46;27.27;;;3.35;;
54935;SDS011;40838;50.676;7.838;2022-09-16T13:57:17;2.53;;;1.00;;
54935;SDS011;40838;50.676;7.838;2022-09-16T14:00:00;6.55;;;0.85;;
54935;SDS011;40838;50.676;7.838;2022-09-16T14:02:32;4.60;;;0.93;;
54935;SDS011;40838;50.676;7.838;2022-09-16T14:05:12;3.03;;;0.68;;
54935;SDS011;40838;50.676;7.838;2022-09-16T14:07:51;2.35;;;0.70;;
54935;SDS011;40838;50.676;7.838;2022-09-16T14:10:42;1.02;;;0.60;;
54935;SDS011;40838;50.676;7.838;2022-09-16T14:13:21;1.15;;;0.73;;
54935;SDS011;40838;50.676;7.838;2022-09-16T14:16:34;3.72;;;0.70;;
54935;SDS011;40838;50.676;7.838;2022-09-16T14:19:06;1.15;;;0.70;;
54935;SDS011;40838;50.676;7.838;2022-09-16T14:21:40;3.78;;;0.60;;
54935;SDS011;40838;50.676;7.838;2022-09-16T14:24:14;3.33;;;0.60;;
54935;SDS011;40838;50.676;7.838;2022-09-16T14:26:50;0.63;;;0.50;;
54935;SDS011;40838;50.676;7.838;2022-09-16T14:29:18;0.60;;;0.50;;
54935;SDS011;40838;50.676;7.838;2022-09-16T14:31:45;2.15;;;0.40;;
54935;SDS011;40838;50.676;7.838;2022-09-16T14:34:19;0.30;;;0.30;;
54935;SDS011;40838;50.676;7.838;2022-09-16T14:36:55;1.98;;;0.50;;
54935;SDS011;40838;50.676;7.838;2022-09-16T14:39:28;0.40;;;0.40;;
54935;SDS011;40838;50.676;7.838;2022-09-16T14:41:57;1.98;;;0.60;;
54935;SDS011;40838;50.676;7.838;2022-09-16T14:44:33;1.85;;;0.40;;
54935;SDS011;40838;50.676;7.838;2022-09-16T14:47:07;0.68;;;0.40;;
54935;SDS011;40838;50.676;7.838;2022-09-16T14:49:41;0.20;;;0.20;;
54935;SDS011;40838;50.676;7.838;2022-09-16T14:52:16;0.80;;;0.45;;
54935;SDS011;40838;50.676;7.838;2022-09-16T14:54:44;1.70;;;0.70;;
54935;SDS011;40838;50.676;7.838;2022-09-16T14:57:13;0.52;;;0.43;;
54935;SDS011;40838;50.676;7.838;2022-09-16T14:59:40;1.30;;;0.52;;
54935;SDS011;40838;50.676;7.838;2022-09-16T15:02:14;1.20;;;0.65;;
54935;SDS011;40838;50.676;7.838;2022-09-16T15:04:48;0.63;;;0.57;;
54935;SDS011;40838;50.676;7.838;2022-09-16T15:07:21;0.77;;;0.77;;
54935;SDS011;40838;50.676;7.838;2022-09-16T15:09:50;1.15;;;0.70;;
54935;SDS011;40838;50.676;7.838;2022-09-16T15:12:22;0.98;;;0.80;;
54935;SDS011;40838;50.676;7.838;2022-09-16T15:14:51;2.22;;;0.90;;
54935;SDS011;40838;50.676;7.838;2022-09-16T15:17:18;4.10;;;0.80;;
54935;SDS011;40838;50.676;7.838;2022-09-16T15:19:47;0.90;;;0.80;;
54935;SDS011;40838;50.676;7.838;2022-09-16T15:22:16;1.50;;;0.95;;
54935;SDS011;40838;50.676;7.838;2022-09-16T15:24:46;2.75;;;1.10;;
54935;SDS011;40838;50.676;7.838;2022-09-16T15:27:26;1.17;;;1.00;;
54935;SDS011;40838;50.676;7.838;2022-09-16T15:29:54;3.33;;;1.30;;